Terminal Aerodrome Forecast
Issued by NWS Twin Cities, MN

Home | Current Version | Previous Version | Graphics & Text | Print | Product List | Glossary On
Versions: 1 2 3 4 5 6 7 8 9 10 11 12 13 14 15 16 17 18 19 20 21 22 23 24 25 26 27
000
FTUS43 KMPX 221700
TAFMSP
TAF
KMSP 221740Z 2218/2324 36005KT P6SM OVC015
     FM221900 36006KT P6SM BKN020
     FM222100 01006KT P6SM SCT030
     FM230300 04005KT P6SM FEW030 BKN200
     FM230900 06005KT 4SM BR BKN007
     FM231600 08006KT P6SM BKN020
     FM231800 09010KT P6SM SCT030 BKN100=

USA.gov is the U.S. government's official web portal to all federal, state and local government web resources and services.